Time;durP1;ratioP1;P1;durP2;ratioP2;P2;SDS_P1;SDS_P2;PMS_P1;PMS_P2;Temp;Humidity;BMP_temperature;BMP_pressure;BME280_temperature;BME280_humidity;BME280_pressure;Samples;Min_cycle;Max_cycle;Signal;HPM_P1;HPM_P2
2023/03/25 06:01:20;;;;;;;;;0.00;0.00;;;;;12.98;63.17;-10244.94;5567080;22;45399;-89
2023/03/25 06:03:45;;;;;;;;;0.00;0.00;;;;;13.17;62.96;-10247.13;4960513;28;45385;-89
2023/03/25 06:06:17;;;;;;;;;0.00;0.00;;;;;13.01;62.78;-9912.31;4960006;28;45435;-89
2023/03/25 06:08:48;;;;;;;;;0.00;0.00;;;;;13.15;62.65;-9913.84;4958459;28;45431;-88
2023/03/25 06:11:15;;;;;;;;;0.00;0.00;;;;;12.62;62.66;-9575.28;4958794;28;45393;-90
2023/03/25 06:13:48;;;;;;;;;0.67;0.00;;;;;13.12;62.54;-9580.41;4955560;28;45471;-88
2023/03/25 06:16:17;;;;;;;;;0.00;0.00;;;;;13.09;62.53;-9247.09;4960828;28;45390;-88
2023/03/25 06:18:43;;;;;;;;;0.00;0.00;;;;;12.83;62.51;-9244.56;4959750;28;45425;-87
2023/03/25 06:21:10;;;;;;;;;0.00;0.00;;;;;12.83;62.55;-9244.50;4961126;28;45438;-90
2023/03/25 06:23:35;;;;;;;;;0.00;0.00;;;;;12.79;62.24;-9244.16;4956974;28;45449;-88
2023/03/25 06:26:00;;;;;;;;;1.00;0.00;;;;;12.86;62.52;-8911.81;4959851;28;46041;-89
2023/03/25 06:28:26;;;;;;;;;0.00;0.00;;;;;12.89;62.39;-8912.16;4960195;28;45383;-90
2023/03/25 06:30:51;;;;;;;;;0.00;0.00;;;;;13.02;62.72;-8913.28;4960119;28;45641;-88
2023/03/25 06:33:18;;;;;;;;;0.00;0.00;;;;;12.82;62.49;-8911.44;4958511;28;45572;-89
2023/03/25 06:35:48;;;;;;;;;0.67;0.00;;;;;12.99;62.51;-8913.06;4959959;28;47174;-87
2023/03/25 06:38:14;;;;;;;;;0.00;0.00;;;;;12.82;62.56;-8911.50;4958539;28;45435;-90
2023/03/25 06:40:39;;;;;;;;;0.00;0.00;;;;;12.74;62.60;-8910.69;4960256;28;45362;-90
2023/03/25 06:43:05;;;;;;;;;0.33;0.00;;;;;12.74;62.80;-9243.66;4959544;28;45657;-90
2023/03/25 06:45:31;;;;;;;;;0.00;0.00;;;;;12.59;62.97;-9242.19;4962507;28;45605;-90
2023/03/25 06:47:57;;;;;;;;;0.00;0.00;;;;;12.66;62.84;-9242.84;4959917;28;45293;-89
2023/03/25 06:50:22;;;;;;;;;0.00;0.00;;;;;11.99;62.99;-9236.31;4960804;28;45785;-90
2023/03/25 06:52:47;;;;;;;;;0.00;0.00;;;;;12.92;62.97;-9245.41;4960797;28;45218;-88
2023/03/25 06:55:13;;;;;;;;;0.00;0.00;;;;;12.77;62.86;-9243.94;4940222;28;46998;-90
2023/03/25 06:57:38;;;;;;;;;0.00;0.00;;;;;12.93;62.92;-9245.47;4941562;28;45645;-90
2023/03/25 07:00:05;;;;;;;;;0.00;0.00;;;;;12.64;62.71;-9242.66;4938276;28;45339;-89
2023/03/25 07:02:30;;;;;;;;;0.00;0.00;;;;;12.93;63.14;-9245.50;4952126;28;45502;-85
2023/03/25 07:04:55;;;;;;;;;0.33;0.00;;;;;12.93;63.04;-9578.50;4974400;28;45366;-82
2023/03/25 07:07:21;;;;;;;;;0.00;0.00;;;;;12.94;63.13;-9578.56;4960039;28;45441;-82
2023/03/25 07:09:50;;;;;;;;;0.00;0.00;;;;;12.94;63.20;-9578.59;4959707;28;45346;-83
2023/03/25 07:12:15;;;;;;;;;0.00;0.00;;;;;12.83;63.58;-9577.50;4971440;28;45373;-82
2023/03/25 07:14:41;;;;;;;;;0.00;0.00;;;;;12.86;62.97;-9577.75;4961859;28;45343;-85
2023/03/25 07:17:07;;;;;;;;;0.00;0.00;;;;;12.55;62.94;-9574.59;4973386;28;45282;-85
2023/03/25 07:19:32;;;;;;;;;0.00;0.00;;;;;13.06;62.88;-9912.84;4961950;28;45369;-84
2023/03/25 07:21:58;;;;;;;;;0.00;0.00;;;;;13.04;62.86;-9912.63;4963377;28;45420;-84
2023/03/25 07:24:23;;;;;;;;;5.33;3.67;;;;;13.01;62.74;-9912.31;4963243;28;45849;-85
2023/03/25 07:26:48;;;;;;;;;0.33;0.33;;;;;12.81;62.70;-9577.22;4958445;28;46422;-87
2023/03/25 07:29:14;;;;;;;;;0.00;0.00;;;;;13.16;62.60;-9580.81;4962969;28;45466;-86
2023/03/25 07:31:43;;;;;;;;;0.00;0.00;;;;;12.79;62.52;-9909.97;4948692;28;45558;-86
2023/03/25 07:34:08;;;;;;;;;0.00;0.00;;;;;12.94;62.49;-9911.56;4952042;28;46974;-87
2023/03/25 07:36:34;;;;;;;;;0.00;0.00;;;;;13.28;62.17;-9915.31;4962500;28;45446;-85
2023/03/25 07:38:59;;;;;;;;;0.00;0.00;;;;;13.33;62.37;-9915.75;4973748;28;45675;-84
2023/03/25 07:41:24;;;;;;;;;0.00;0.00;;;;;13.36;62.11;-9582.88;4971189;28;45544;-82
2023/03/25 07:43:50;;;;;;;;;0.00;0.00;;;;;13.00;61.88;-9579.19;4951777;28;46146;-85
2023/03/25 07:46:15;;;;;;;;;0.67;0.00;;;;;13.41;61.93;-9583.41;4957443;28;45509;-85
2023/03/25 07:48:41;;;;;;;;;0.00;0.00;;;;;13.13;61.95;-9580.56;4972564;28;45497;-86
2023/03/25 07:51:08;;;;;;;;;0.67;0.00;;;;;13.35;62.05;-9582.84;4964424;28;45621;-87
2023/03/25 07:53:43;;;;;;;;;0.00;0.00;;;;;13.57;61.93;-9585.03;4955252;28;46048;-87
2023/03/25 07:56:09;;;;;;;;;0.00;0.00;;;;;12.80;61.60;-9910.03;4957913;28;45604;-87
2023/03/25 07:58:35;;;;;;;;;0.00;0.00;;;;;13.46;61.35;-9250.72;4948480;28;45543;-87
2023/03/25 08:01:01;;;;;;;;;0.00;0.00;;;;;13.64;61.10;-9252.47;4953435;28;48068;-79
2023/03/25 08:03:27;;;;;;;;;2.00;0.00;;;;;13.68;61.38;-9586.25;4964110;28;45443;-85
2023/03/25 08:05:52;;;;;;;;;0.00;0.00;;;;;13.69;61.26;-9586.31;4967118;28;45459;-81
2023/03/25 08:08:18;;;;;;;;;0.00;0.00;;;;;13.77;61.51;-9920.56;4962000;28;45378;-84
2023/03/25 08:10:45;;;;;;;;;0.00;0.00;;;;;13.79;61.22;-9587.38;4949083;28;45482;-82
2023/03/25 08:13:10;;;;;;;;;0.00;0.00;;;;;13.86;60.57;-8921.09;4957600;28;46899;-83
2023/03/25 08:15:36;;;;;;;;;0.00;0.00;;;;;13.84;60.40;-8920.84;4956898;28;45503;-85
2023/03/25 08:18:02;;;;;;;;;0.00;0.00;;;;;13.73;60.65;-8919.84;4953028;28;45358;-85
2023/03/25 08:20:28;;;;;;;;;0.00;0.00;;;;;13.79;60.31;-8920.38;4960072;28;45594;-83
2023/03/25 08:22:56;;;;;;;;;0.00;0.00;;;;;13.97;60.31;-8922.06;4954870;28;46086;-85
2023/03/25 08:25:21;;;;;;;;;0.67;0.00;;;;;13.99;60.21;-8922.22;4958696;28;45424;-84
2023/03/25 08:27:47;;;;;;;;;0.33;0.00;;;;;13.82;60.14;-8920.72;4957289;28;45461;-83
2023/03/25 08:30:13;;;;;;;;;1.00;0.00;;;;;14.14;59.83;-8589.97;4934277;28;45621;-84
2023/03/25 08:32:39;;;;;;;;;0.33;0.00;;;;;14.19;59.57;-8590.34;4960670;28;46033;-84
2023/03/25 08:35:05;;;;;;;;;0.00;0.00;;;;;14.20;59.67;-8590.47;4938680;28;45550;-82
2023/03/25 08:37:34;;;;;;;;;0.00;0.00;;;;;14.21;59.43;-8590.56;4941607;28;46495;-84
2023/03/25 08:40:01;;;;;;;;;0.00;0.00;;;;;14.04;59.54;-8589.03;4964785;28;45376;-83
2023/03/25 08:42:29;;;;;;;;;0.00;0.00;;;;;14.19;59.44;-8590.38;4954263;28;46075;-84
2023/03/25 08:44:55;;;;;;;;;0.00;0.00;;;;;14.22;58.95;-7923.03;4949922;28;45472;-85
2023/03/25 08:47:20;;;;;;;;;0.00;0.00;;;;;14.27;59.23;-8257.28;4947108;28;45503;-84
2023/03/25 08:49:45;;;;;;;;;0.00;0.00;;;;;14.33;59.52;-8257.78;4960158;28;45485;-85
2023/03/25 08:52:10;;;;;;;;;0.00;0.00;;;;;14.18;59.46;-8590.28;4948694;28;45957;-85
2023/03/25 08:54:36;;;;;;;;;1.00;0.00;;;;;14.29;59.43;-8591.25;4960111;28;46419;-85
2023/03/25 08:57:01;;;;;;;;;0.33;0.00;;;;;14.34;58.93;-8257.84;4961702;28;45355;-87
2023/03/25 08:59:27;;;;;;;;;0.00;0.00;;;;;14.43;59.08;-8258.53;4953397;28;45436;-87
2023/03/25 09:01:52;;;;;;;;;0.00;0.00;;;;;14.57;58.84;-8259.72;4946487;28;45556;-87
2023/03/25 09:04:18;;;;;;;;;0.00;0.00;;;;;14.08;58.88;-8589.44;4949198;28;45291;-91
2023/03/25 09:06:43;;;;;;;;;0.00;0.00;;;;;14.63;58.39;-8260.16;4956773;28;45547;-87
2023/03/25 09:09:10;;;;;;;;;0.00;0.00;;;;;14.56;58.16;-7925.63;4965450;28;45283;-89
2023/03/25 09:11:36;;;;;;;;;0.33;0.00;;;;;14.57;58.39;-7591.72;4973915;28;45493;-88
2023/03/25 09:14:02;;;;;;;;;0.00;0.00;;;;;14.72;57.64;-7592.75;4961286;28;46172;-84
2023/03/25 09:16:28;;;;;;;;;0.00;0.00;;;;;14.61;58.28;-7926.03;4953267;28;45404;-87
2023/03/25 09:18:54;;;;;;;;;0.00;0.00;;;;;14.80;57.96;-7593.28;4953869;28;45542;-86
2023/03/25 09:21:19;;;;;;;;;0.00;0.00;;;;;14.67;57.94;-7592.44;4951658;28;46922;-85
2023/03/25 09:23:45;;;;;;;;;0.00;0.00;;;;;14.71;57.92;-7926.81;4958202;28;45404;-85
2023/03/25 09:26:10;;;;;;;;;0.00;0.00;;;;;14.98;57.80;-7928.88;4951391;28;45679;-85
2023/03/25 09:28:36;;;;;;;;;0.00;0.00;;;;;14.89;57.57;-7593.94;4958427;28;45442;-87
2023/03/25 09:31:01;;;;;;;;;0.00;0.00;;;;;15.07;56.75;-6592.19;4949465;28;46252;-92
2023/03/25 09:33:27;;;;;;;;;0.00;0.00;;;;;15.21;56.26;-6927.41;4948475;28;45470;-85
2023/03/25 09:35:53;;;;;;;;;0.00;0.00;;;;;15.16;56.31;-6592.72;4939903;28;45458;-83
2023/03/25 09:38:18;;;;;;;;;0.00;0.00;;;;;15.09;56.52;-6926.72;4947979;28;45651;-83
2023/03/25 09:40:45;;;;;;;;;0.33;0.00;;;;;15.29;56.15;-6927.91;4960131;28;46009;-84
2023/03/25 09:43:48;;;;;;;;;0.00;0.00;;;;;15.47;56.29;-6928.97;4951107;28;45324;-83
2023/03/25 09:46:13;;;;;;;;;0.00;0.00;;;;;15.60;55.94;-6595.06;4950912;28;45519;-83
2023/03/25 09:48:41;;;;;;;;;0.00;0.00;;;;;15.30;56.07;-6927.97;4961284;28;45449;-85
2023/03/25 09:51:34;;;;;;;;;1.00;0.00;;;;;15.41;56.15;-6594.06;4954780;28;46388;-88
2023/03/25 09:54:27;;;;;;;;;0.00;0.00;;;;;15.42;56.87;-6928.66;4957502;28;45462;-83
2023/03/25 09:56:57;;;;;;;;;0.00;0.00;;;;;15.31;57.88;-8265.69;4943662;28;45439;-84
2023/03/25 09:59:46;;;;;;;;;0.00;0.00;;;;;15.22;59.73;-10270.31;4957762;28;45627;-81
2023/03/25 10:02:33;;;;;;;;;0.00;0.00;;;;;15.49;59.59;-10607.69;4956471;28;45424;-82
2023/03/25 10:05:18;;;;;;;;;0.00;0.00;;;;;15.59;60.55;-11611.72;4961813;28;46080;-82
2023/03/25 10:07:44;;;;;;;;;0.67;0.00;;;;;15.71;59.61;-11278.94;4961455;28;45418;-83
2023/03/25 10:10:22;;;;;;;;;0.00;0.00;;;;;16.03;59.46;-11952.06;4966559;28;45437;-82
2023/03/25 10:12:53;;;;;;;;;1.00;0.00;;;;;16.74;58.95;-12631.47;4941331;28;47963;-83
2023/03/25 10:15:57;;;;;;;;;0.00;0.00;;;;;17.25;57.85;-13309.13;4972666;28;45371;-81
2023/03/25 10:19:05;;;;;;;;;1.00;0.00;;;;;17.37;55.38;-11300.31;4878177;29;45531;-82
2023/03/25 10:21:48;;;;;;;;;0.00;0.00;;;;;17.90;55.45;-12313.38;4874787;29;45621;-82
2023/03/25 10:24:40;;;;;;;;;1.00;0.00;;;;;18.98;53.62;-12328.91;4880598;29;46119;-81
2023/03/25 10:27:14;;;;;;;;;0.00;0.00;;;;;19.66;53.49;-12674.94;4863861;29;45704;-84
2023/03/25 10:30:03;;;;;;;;;0.00;0.00;;;;;20.61;51.38;-10330.69;4873829;29;45547;-84
2023/03/25 10:35:47;;;;;;;;;0.00;0.00;;;;;21.03;48.41;-542.66;4976502;23;45334;-85
2023/03/25 10:38:19;;;;;;;;;0.00;0.00;;;;;20.84;46.89;4529.91;4977550;28;45761;-85
2023/03/25 10:40:48;;;;;;;;;0.00;0.00;;;;;20.78;47.75;4529.19;4979791;28;45410;-86
2023/03/25 10:43:37;;;;;;;;;1.00;0.00;;;;;20.64;46.41;10283.50;4961662;28;45511;-86
2023/03/25 10:46:54;;;;;;;;;0.00;0.00;;;;;20.27;46.61;12307.78;4976042;28;46613;-87
2023/03/25 10:49:23;;;;;;;;;1.00;0.00;;;;;20.05;46.84;15351.81;4882931;28;45396;-89
2023/03/25 10:51:55;;;;;;;;;0.00;0.00;;;;;19.84;47.60;14668.06;4903194;28;45985;-89
2023/03/25 10:54:25;;;;;;;;;0.00;0.00;;;;;19.91;47.94;13315.00;4912072;28;45682;-87
2023/03/25 10:56:53;;;;;;;;;0.00;0.00;;;;;19.93;47.99;14331.72;4908176;28;47433;-85
2023/03/25 10:59:24;;;;;;;;;0.00;0.00;;;;;19.88;47.43;16024.59;4921063;28;45351;-86
2023/03/25 11:01:52;;;;;;;;;0.00;0.00;;;;;19.60;47.64;16016.22;4913002;28;45583;-91
2023/03/25 11:04:21;;;;;;;;;0.00;0.00;;;;;19.95;47.17;15349.06;4903373;28;45491;-87
2023/03/25 11:06:54;;;;;;;;;1.00;0.00;;;;;20.27;46.62;15697.63;4908595;28;47146;-85
2023/03/25 11:09:31;;;;;;;;;0.00;0.00;;;;;20.60;45.71;17065.03;4909598;28;45951;-86
2023/03/25 11:12:00;;;;;;;;;0.00;0.00;;;;;20.61;44.76;21140.56;4909868;28;45263;-86
2023/03/25 11:14:28;;;;;;;;;0.00;0.00;;;;;20.64;44.93;25221.69;4908804;28;45625;-86
2023/03/25 11:16:58;;;;;;;;;0.00;0.00;;;;;20.33;45.82;25547.44;4908818;28;46571;-86
2023/03/25 11:19:32;;;;;;;;;0.00;0.00;;;;;20.15;45.46;26219.06;4902403;28;45564;-85
2023/03/25 11:22:07;;;;;;;;;0.00;0.00;;;;;19.99;46.87;25531.84;4899322;29;45301;-85
2023/03/25 11:24:39;;;;;;;;;0.00;0.00;;;;;19.86;46.74;26205.28;4903177;28;45815;-88
2023/03/25 11:27:07;;;;;;;;;0.00;0.00;;;;;19.81;46.35;28242.13;4970030;28;47304;-87
2023/03/25 11:29:35;;;;;;;;;0.00;0.00;;;;;19.83;46.55;27903.19;4976953;28;45312;-88
2023/03/25 11:32:13;;;;;;;;;0.00;0.00;;;;;19.72;46.37;29260.28;4972874;28;45495;-88
2023/03/25 11:34:42;;;;;;;;;0.00;0.00;;;;;19.71;46.30;30622.34;4976001;28;45619;-89
2023/03/25 11:37:15;;;;;;;;;0.00;0.00;;;;;19.72;45.46;32340.13;4959321;28;48695;-91
2023/03/25 11:39:42;;;;;;;;;0.00;0.00;;;;;19.72;45.09;33108.19;4962287;28;45320;-88
2023/03/25 11:42:16;;;;;;;;;0.00;0.00;;;;;19.76;46.06;30763.31;4983592;28;45479;-87
2023/03/25 11:44:50;;;;;;;;;0.00;0.00;;;;;19.82;46.04;31643.81;4959238;28;45755;-87
2023/03/25 11:47:39;;;;;;;;;0.00;0.00;;;;;19.84;45.54;30478.09;4975169;28;47131;-91
2023/03/25 11:50:05;;;;;;;;;1.67;0.00;;;;;19.95;45.45;29490.19;4954289;28;46507;-87
2023/03/25 11:52:44;;;;;;;;;0.00;0.00;;;;;20.43;45.07;29855.84;4975619;28;45434;-87
2023/03/25 11:55:46;;;;;;;;;1.00;0.00;;;;;20.58;43.70;32186.94;4975400;28;45544;-85
2023/03/25 11:58:21;;;;;;;;;0.00;0.00;;;;;20.41;43.85;34700.94;4964680;28;45466;-88
2023/03/25 12:00:49;;;;;;;;;0.00;0.00;;;;;20.71;43.37;38450.66;4987768;28;45424;-92
2023/03/25 12:03:21;;;;;;;;;0.00;0.00;;;;;20.50;43.60;39828.44;4983949;28;45366;-91
2023/03/25 12:06:17;;;;;;;;;0.00;0.00;;;;;20.19;43.97;39481.69;4984515;28;45621;-92
2023/03/25 12:08:49;;;;;;;;;0.00;0.00;;;;;20.43;44.89;39103.94;4970163;28;47565;-89
2023/03/25 12:11:26;;;;;;;;;0.00;0.00;;;;;20.50;44.55;39001.81;4970321;28;45535;-87
2023/03/25 12:14:21;;;;;;;;;1.00;0.00;;;;;20.62;43.98;40183.69;4976690;28;45442;-87
2023/03/25 12:16:49;;;;;;;;;0.00;0.00;;;;;20.69;43.54;40943.03;4980042;28;45477;-86
2023/03/25 12:19:33;;;;;;;;;0.00;0.00;;;;;20.63;43.39;42129.19;4975051;28;46159;-84
2023/03/25 12:22:08;;;;;;;;;0.00;0.00;;;;;20.52;43.75;43853.50;4958326;28;45272;-84
2023/03/25 12:24:59;;;;;;;;;0.00;0.00;;;;;20.37;43.68;44295.66;4972314;28;45705;-84
2023/03/25 12:27:51;;;;;;;;;0.00;0.00;;;;;20.19;44.85;43897.75;4959356;28;45520;-85
2023/03/25 12:30:48;;;;;;;;;0.00;0.00;;;;;20.03;45.30;43691.41;4966580;28;46424;-84
2023/03/25 12:33:42;;;;;;;;;0.00;0.00;;;;;19.95;44.79;44092.94;4961369;28;46940;-84
2023/03/25 12:36:11;;;;;;;;;0.00;0.00;;;;;20.07;44.98;43280.66;4969383;28;45371;-85
2023/03/25 12:38:55;;;;;;;;;0.00;0.00;;;;;20.32;43.97;43723.69;4973857;28;45408;-84
2023/03/25 12:41:38;;;;;;;;;1.00;0.00;;;;;20.53;44.19;43458.81;4973131;28;47304;-84
2023/03/25 12:44:12;;;;;;;;;0.00;0.00;;;;;20.61;43.94;43836.06;4976068;28;45456;-84
2023/03/25 12:46:58;;;;;;;;;0.00;0.00;;;;;20.58;43.71;44239.56;4971607;28;45586;-84
2023/03/25 12:49:29;;;;;;;;;0.00;0.00;;;;;20.54;43.60;44973.81;4973424;28;45540;-84
2023/03/25 12:52:16;;;;;;;;;0.00;0.00;;;;;20.56;43.82;45736.19;4973391;28;46662;-84
2023/03/25 12:54:54;;;;;;;;;0.00;0.00;;;;;20.63;43.93;45285.03;4951342;28;45377;-84
2023/03/25 12:57:45;;;;;;;;;0.00;0.00;;;;;20.69;43.08;46056.53;4969581;28;45450;-85
2023/03/25 13:00:24;;;;;;;;;0.00;0.00;;;;;20.74;44.20;45280.03;4973268;28;45479;-85
2023/03/25 13:02:57;;;;;;;;;0.00;0.00;;;;;20.78;43.72;45724.09;4971987;28;47775;-85
2023/03/25 13:05:50;;;;;;;;;1.00;0.00;;;;;20.77;43.22;47019.38;4961110;28;45388;-84
2023/03/25 13:08:19;;;;;;;;;0.00;0.00;;;;;20.80;42.69;48294.75;4970957;28;45556;-85
2023/03/25 13:10:54;;;;;;;;;1.00;0.00;;;;;20.58;42.30;49244.25;4975233;28;45382;-84
2023/03/25 13:13:24;;;;;;;;;0.00;0.00;;;;;20.68;42.50;50022.19;4970043;28;46192;-84
2023/03/25 13:16:01;;;;;;;;;0.00;0.00;;;;;20.92;42.79;49516.13;4974256;28;45392;-85
2023/03/25 13:18:33;;;;;;;;;0.00;0.00;;;;;20.87;42.13;51374.41;4954938;28;45555;-85
2023/03/25 13:21:29;;;;;;;;;0.00;0.00;;;;;20.74;42.25;52015.66;4965685;28;45698;-83
2023/03/25 13:24:03;;;;;;;;;0.00;0.00;;;;;20.54;42.50;52735.91;4969668;28;46573;-84
2023/03/25 13:26:31;;;;;;;;;0.00;0.00;;;;;20.55;42.60;52855.00;4976440;28;45552;-84
2023/03/25 13:29:23;;;;;;;;;0.00;0.00;;;;;20.22;42.72;52619.59;4975869;28;45429;-82
2023/03/25 13:31:49;;;;;;;;;1.00;0.00;;;;;20.72;41.85;53346.69;4977416;28;45631;-82
2023/03/25 13:34:25;;;;;;;;;0.00;0.00;;;;;20.82;41.91;53310.47;4979350;28;46397;-81
2023/03/25 13:37:18;;;;;;;;;0.00;0.00;;;;;20.90;42.12;53103.25;4979540;28;45350;-82
2023/03/25 13:40:09;;;;;;;;;0.00;0.00;;;;;20.95;41.46;54042.03;4976178;28;48911;-81
2023/03/25 13:42:46;;;;;;;;;0.00;0.00;;;;;20.94;40.77;55801.56;4977181;28;45363;-82
2023/03/25 13:45:20;;;;;;;;;1.00;0.00;;;;;20.74;40.30;57524.09;4975430;28;46190;-82
2023/03/25 13:47:55;;;;;;;;;0.00;0.00;;;;;20.73;40.27;58506.19;4966965;28;45498;-82
2023/03/25 13:50:30;;;;;;;;;0.00;0.00;;;;;20.63;40.66;58582.81;4975087;28;45647;-83
2023/03/25 13:53:04;;;;;;;;;0.00;0.00;;;;;20.44;41.13;58751.03;4975938;28;45642;-83
2023/03/25 13:55:45;;;;;;;;;0.00;0.00;;;;;20.40;40.59;59430.19;4977614;28;47390;-84
2023/03/25 13:58:42;;;;;;;;;0.00;0.00;;;;;20.12;40.78;60176.47;4976357;28;45535;-83
2023/03/25 14:02:01;;;;;;;;;0.00;0.00;;;;;20.09;40.41;60896.16;4970642;28;45493;-83
2023/03/25 14:05:10;;;;;;;;;0.00;0.00;;;;;20.01;39.80;61257.94;4972708;28;45333;-82
2023/03/25 14:07:47;;;;;;;;;1.00;0.00;;;;;19.93;39.97;61525.91;4956680;28;46709;-82
2023/03/25 14:10:16;;;;;;;;;0.00;0.00;;;;;19.90;40.28;61632.00;4975167;28;45388;-82
2023/03/25 14:12:45;;;;;;;;;0.00;0.00;;;;;19.84;39.69;62057.44;4975842;28;45479;-82
2023/03/25 14:15:33;;;;;;;;;0.00;0.00;;;;;19.74;40.42;61966.34;4977601;28;45416;-81
2023/03/25 14:17:59;;;;;;;;;0.00;0.00;;;;;19.69;40.71;62242.75;4977014;28;45506;-82
2023/03/25 14:20:33;;;;;;;;;0.00;0.00;;;;;19.61;40.84;62398.00;4960366;28;45425;-82
2023/03/25 14:23:05;;;;;;;;;0.50;0.00;;;;;19.44;40.92;62186.88;4943958;28;45346;-85
2023/03/25 14:25:38;;;;;;;;;0.00;0.00;;;;;19.58;41.54;62214.78;4963763;28;45289;-82
2023/03/25 14:28:05;;;;;;;;;0.00;0.00;;;;;19.54;41.63;62044.47;4958734;28;45615;-81
2023/03/25 14:30:32;;;;;;;;;0.00;0.00;;;;;19.36;40.71;62417.06;4958830;28;45456;-82
2023/03/25 14:33:01;;;;;;;;;0.00;0.00;;;;;19.54;41.24;62398.47;4977089;28;45467;-82
2023/03/25 14:35:33;;;;;;;;;0.00;0.00;;;;;19.56;41.66;62052.50;4975384;28;45503;-82
2023/03/25 14:38:04;;;;;;;;;0.00;0.00;;;;;19.53;40.52;62624.50;4972049;28;45941;-81
2023/03/25 14:40:42;;;;;;;;;0.00;0.00;;;;;19.46;40.97;62630.81;4976217;28;45396;-82
2023/03/25 14:43:31;;;;;;;;;2.00;0.00;;;;;19.41;40.92;62893.16;4974863;28;45582;-81
2023/03/25 14:46:09;;;;;;;;;1.00;0.00;;;;;19.32;40.68;63062.75;4978280;28;45380;-81
2023/03/25 14:48:36;;;;;;;;;1.00;0.00;;;;;19.24;40.63;63236.59;4977085;28;47291;-81
2023/03/25 14:51:26;;;;;;;;;0.00;0.00;;;;;19.15;41.04;63267.47;4977459;28;45444;-81
2023/03/25 14:54:28;;;;;;;;;0.00;0.00;;;;;19.09;40.75;63469.66;4977767;28;45515;-81
2023/03/25 14:57:13;;;;;;;;;0.00;0.00;;;;;19.03;41.63;63339.94;4965022;28;45524;-82
2023/03/25 14:59:57;;;;;;;;;0.00;0.00;;;;;18.96;41.73;63421.16;4976194;28;47512;-82
2023/03/25 15:02:29;;;;;;;;;0.00;0.00;;;;;18.89;41.46;63597.53;4976621;28;45500;-82
2023/03/25 15:05:02;;;;;;;;;0.00;0.00;;;;;18.81;41.74;63535.78;4976033;28;45513;-82
2023/03/25 15:07:43;;;;;;;;;0.00;0.00;;;;;18.52;41.64;63654.19;4978625;28;45416;-82
2023/03/25 15:10:20;;;;;;;;;1.00;0.00;;;;;18.66;41.66;63770.69;4975821;28;46539;-82
2023/03/25 15:12:50;;;;;;;;;0.00;0.00;;;;;18.48;42.14;63748.72;4974388;28;45413;-83
2023/03/25 15:15:49;;;;;;;;;0.00;0.00;;;;;18.63;41.65;63733.16;4978958;28;45297;-93
2023/03/25 15:18:35;;;;;;;;;0.00;0.00;;;;;18.63;41.63;63912.38;4962355;28;45933;-92
2023/03/25 15:21:07;;;;;;;;;0.00;0.00;;;;;18.62;42.04;63817.13;4960607;28;46411;-86
2023/03/25 15:24:11;;;;;;;;;0.00;0.00;;;;;18.62;41.53;63823.00;4959124;28;45481;-88
2023/03/25 15:26:46;;;;;;;;;1.00;0.00;;;;;18.64;42.26;63704.84;4930052;28;45313;-92
2023/03/25 15:29:42;;;;;;;;;0.00;0.00;;;;;18.62;41.83;63750.25;4936748;28;45437;-85
2023/03/25 15:32:32;;;;;;;;;0.00;0.00;;;;;18.63;42.54;63556.06;4935962;28;46360;-88
2023/03/25 15:35:30;;;;;;;;;0.00;0.00;;;;;18.63;42.03;63751.34;4927663;28;45589;-87
2023/03/25 15:38:20;;;;;;;;;0.00;0.00;;;;;18.63;42.08;63791.47;4932446;28;45683;-87
2023/03/25 15:40:49;;;;;;;;;0.00;0.00;;;;;18.60;42.13;63705.22;4932946;28;45753;-87
2023/03/25 15:43:37;;;;;;;;;1.00;0.00;;;;;18.55;42.17;63861.28;4935222;28;46347;-87
2023/03/25 15:46:24;;;;;;;;;0.00;0.00;;;;;18.53;42.35;63765.47;4925351;28;45348;-89
2023/03/25 15:49:04;;;;;;;;;0.00;0.00;;;;;18.49;42.02;63884.06;4934019;28;45550;-88
2023/03/25 15:51:59;;;;;;;;;0.00;0.00;;;;;18.35;42.53;63967.53;4933379;28;45663;-90
2023/03/25 15:54:53;;;;;;;;;0.00;0.00;;;;;18.41;42.62;63882.72;4934563;28;47665;-89
2023/03/25 15:57:30;;;;;;;;;0.00;0.00;;;;;18.27;42.49;63897.75;4934413;28;45866;-90
2023/03/25 16:00:14;;;;;;;;;0.00;0.00;;;;;18.33;41.55;64152.47;4945975;28;45758;-90
2023/03/25 16:02:48;;;;;;;;;0.00;0.00;;;;;18.19;42.40;64081.38;4955555;28;45634;-90
2023/03/25 16:05:15;;;;;;;;;0.00;0.00;;;;;18.27;42.06;64221.25;4957207;28;47273;-89
2023/03/25 16:07:41;;;;;;;;;0.00;0.00;;;;;18.22;42.48;64207.66;4957961;28;45594;-89
2023/03/25 16:10:11;;;;;;;;;1.00;0.00;;;;;18.06;42.12;64246.03;4957105;28;45462;-90
2023/03/25 16:12:37;;;;;;;;;0.00;0.00;;;;;18.16;42.82;64227.19;4958859;28;45376;-88
2023/03/25 16:15:04;;;;;;;;;0.00;0.00;;;;;18.02;41.99;64488.00;4957409;28;46497;-89
2023/03/25 16:17:33;;;;;;;;;0.00;0.00;;;;;18.07;41.97;64538.47;4954951;28;45361;-90
2023/03/25 16:20:00;;;;;;;;;0.00;0.00;;;;;18.03;42.38;64542.59;4961751;28;46363;-89
2023/03/25 16:22:28;;;;;;;;;0.00;0.00;;;;;17.86;42.06;64556.22;4954777;28;45372;-89
2023/03/25 16:24:57;;;;;;;;;0.00;0.00;;;;;17.96;42.15;64665.75;4956847;28;47628;-90
2023/03/25 16:27:29;;;;;;;;;0.00;0.00;;;;;17.93;42.05;64675.72;4955892;28;45427;-91
2023/03/25 16:29:55;;;;;;;;;1.00;0.00;;;;;17.86;41.97;64683.94;4956591;28;45454;-90
2023/03/25 16:32:32;;;;;;;;;1.00;0.00;;;;;17.86;41.11;65020.66;4941634;28;45347;-90
2023/03/25 16:34:57;;;;;;;;;0.33;0.00;;;;;17.76;41.42;65001.91;4968672;28;45442;-89
2023/03/25 16:37:24;;;;;;;;;0.00;0.00;;;;;17.77;41.56;65005.16;4976043;28;45556;-95
2023/03/25 16:39:54;;;;;;;;;0.00;0.00;;;;;17.74;42.13;64991.66;4977752;28;45471;-91
2023/03/25 16:42:35;;;;;;;;;0.00;0.00;;;;;17.56;42.00;64902.53;4976836;28;45543;-89
2023/03/25 16:45:01;;;;;;;;;0.00;0.00;;;;;17.69;42.04;64991.94;4972733;28;47562;-88
2023/03/25 16:47:29;;;;;;;;;0.00;0.00;;;;;17.53;42.44;64963.25;4965540;28;45580;-85
2023/03/25 16:49:58;;;;;;;;;0.00;0.00;;;;;17.27;42.09;65012.00;4959626;28;45513;-91
2023/03/25 16:52:27;;;;;;;;;0.00;0.00;;;;;17.63;41.88;65105.41;4981877;28;45203;-96
2023/03/25 16:54:53;;;;;;;;;0.00;0.00;;;;;17.61;41.43;65212.13;4976260;28;46614;-87
2023/03/25 16:57:27;;;;;;;;;0.00;0.00;;;;;17.13;41.68;65189.00;4976919;28;45780;-93
2023/03/25 16:59:54;;;;;;;;;1.00;0.00;;;;;17.34;41.41;65310.97;4977344;28;45687;-92
2023/03/25 17:02:27;;;;;;;;;0.00;0.00;;;;;17.22;41.59;65219.97;4963092;28;45456;-89
2023/03/25 17:04:54;;;;;;;;;0.00;0.00;;;;;17.47;41.65;65323.00;4978283;28;47129;-89
2023/03/25 17:07:27;;;;;;;;;0.00;0.00;;;;;17.40;41.98;65314.53;4963569;28;45584;-94
2023/03/25 17:09:59;;;;;;;;;1.00;0.00;;;;;17.29;41.58;65377.41;4978285;28;45381;-91
2023/03/25 17:12:27;;;;;;;;;1.00;0.00;;;;;17.26;42.20;65376.69;4961710;28;45581;-88
2023/03/25 17:15:05;;;;;;;;;1.00;0.00;;;;;17.32;42.04;65300.13;4967390;28;47975;-86
2023/03/25 17:17:55;;;;;;;;;0.00;0.00;;;;;17.36;42.22;65310.00;4978494;28;45315;-88
2023/03/25 17:20:29;;;;;;;;;0.00;0.00;;;;;16.90;42.30;65248.44;4959075;28;45825;-87
2023/03/25 17:22:57;;;;;;;;;0.00;0.00;;;;;17.33;42.41;65336.53;4977646;28;45414;-88
2023/03/25 17:25:33;;;;;;;;;2.33;0.00;;;;;17.23;42.19;65397.31;4978970;28;47212;-88
2023/03/25 17:28:07;;;;;;;;;0.00;0.00;;;;;17.25;42.75;65365.44;4971271;28;45532;-84
2023/03/25 17:30:41;;;;;;;;;2.00;0.00;;;;;17.23;42.85;65312.44;4979298;28;45492;-87
2023/03/25 17:33:18;;;;;;;;;0.00;0.00;;;;;17.20;43.24;65231.06;4982464;28;45369;-89
2023/03/25 17:35:53;;;;;;;;;0.00;0.00;;;;;16.86;42.81;65249.84;4980925;28;48708;-87
2023/03/25 17:38:43;;;;;;;;;0.00;0.00;;;;;16.85;43.06;65246.03;4957931;28;45544;-87
2023/03/25 17:41:11;;;;;;;;;0.00;0.00;;;;;16.63;43.24;65173.72;4959437;28;45537;-88
2023/03/25 17:43:41;;;;;;;;;0.00;0.00;;;;;16.78;43.74;65152.72;4979236;28;45562;-88
2023/03/25 17:46:08;;;;;;;;;0.33;0.33;;;;;16.04;43.69;65026.22;4963436;28;48357;-88
2023/03/25 17:48:35;;;;;;;;;0.00;0.00;;;;;16.52;43.76;65057.28;4981408;28;45539;-93
2023/03/25 17:51:01;;;;;;;;;0.00;0.00;;;;;16.96;43.72;65057.75;4980445;28;45431;-88
2023/03/25 17:53:27;;;;;;;;;0.00;0.00;;;;;16.62;44.15;65031.19;4961028;28;45901;-92
2023/03/25 17:55:53;;;;;;;;;0.00;0.00;;;;;16.62;44.33;65010.44;4974188;28;46407;-89
2023/03/25 17:58:21;;;;;;;;;0.33;0.00;;;;;16.14;44.56;64866.34;4982744;28;45470;-96
2023/03/25 18:00:48;;;;;;;;;2.00;0.00;;;;;16.75;44.07;64821.75;4964548;28;45531;-89
2023/03/25 18:03:23;;;;;;;;;1.00;0.00;;;;;16.73;44.46;64784.84;4979945;28;45487;-88
2023/03/25 18:05:52;;;;;;;;;0.00;0.00;;;;;16.79;44.59;64852.41;4961849;28;46322;-88
2023/03/25 18:08:19;;;;;;;;;0.00;0.00;;;;;16.34;44.46;64749.63;4961400;28;47304;-89